CheckWX is a tool to help pilots better visualize weather data.  It is not intended as a substitute for an official pre-flight weather briefing.

08:43:32 UTC

SAAR METAR
Islas Malvinas Airport
Rosario, Argentina
Current

44 mins ago

SAAR 150800Z 29004KT CAVOK 16/12 Q1013
Observed
Nov-15 @ 08:00 UTC
Wind
  • 290° at 4 KTS
Visibility
10,000+ meters
Flight Rules
VFR
Cloud Levels
  • Clear skies
Temperature
16°C / 61°F
Dewpoint
12°C / 54°F
Humidity
77%
Altimeter
29.91" Hg
Pressure
1012.92 hPa
Previous

2 hours ago

SAAR 150700Z 34003KT CAVOK 18/11 Q1012
Observed
Nov-15 @ 07:00 UTC
Wind
  • 340° at 3 KTS
Visibility
10,000+ meters
Flight Rules
VFR
Cloud Levels
  • Clear skies
Temperature
18°C / 64°F
Dewpoint
11°C / 52°F
Humidity
64%
Altimeter
29.88" Hg
Pressure
1011.92 hPa
Previous

3 hours ago

SAAR 150600Z 05006KT CAVOK 19/11 Q1012
Observed
Nov-15 @ 06:00 UTC
Wind
  • 050° at 6 KTS
Visibility
10,000+ meters
Flight Rules
VFR
Cloud Levels
  • Clear skies
Temperature
19°C / 66°F
Dewpoint
11°C / 52°F
Humidity
60%
Altimeter
29.88" Hg
Pressure
1011.92 hPa